Ashton, South Dakota
Current Conditions -  °F | °C
As of 8:53 PM on Saturday 20 Dec 2014 (Local Time) from KABR Reporting Station
Haze Haze  
Wind Chill: 21°   Ceiling: 500
Heat Index: 31°   Visibility: 5mi
Dew Point: 28°   Wind: 14mph
Humidity: 89%   Direction: 190°S
Pressure: 29.9"   Gusts: NA
Location:  44.99°N, 98.5°W
Report Text: KABR 210253Z AUTO 19012KT 5SM BR OVC005 M01/M02 A2990 RMK AO2 SLP142 T10061022 58006
Loading
Personal Weather Stations






























Interactive Weather Map New forecast layout! Learn more

10-Day Weather Forecast

Advertisements
Track Severe Weather on mobile